Time;durP1;ratioP1;P1;durP2;ratioP2;P2;SDS_P1;SDS_P2;PMS_P1;PMS_P2;Temp;Humidity;BMP_temperature;BMP_pressure;BME280_temperature;BME280_humidity;BME280_pressure;Samples;Min_cycle;Max_cycle;Signal;HPM_P1;HPM_P2
2021/06/08 00:00:48;;;;;;;3.80;2.10;;;21.40;56.60;;;;;;5033068;28;20545;-67
2021/06/08 00:03:13;;;;;;;3.28;1.90;;;21.40;56.70;;;;;;5033013;28;20042;-68
2021/06/08 00:05:39;;;;;;;5.18;2.50;;;21.40;56.70;;;;;;5032984;28;20024;-68
2021/06/08 00:08:05;;;;;;;4.57;2.10;;;21.40;56.70;;;;;;5032871;28;20116;-68
2021/06/08 00:10:31;;;;;;;4.63;2.30;;;21.40;56.70;;;;;;5031519;28;20470;-68
2021/06/08 00:12:57;;;;;;;3.25;1.85;;;21.40;56.70;;;;;;5032770;28;20078;-68
2021/06/08 00:15:22;;;;;;;3.50;2.05;;;21.40;56.80;;;;;;5033018;28;20033;-67
2021/06/08 00:17:48;;;;;;;3.97;2.42;;;21.30;56.80;;;;;;5035207;28;20048;-68
2021/06/08 00:20:14;;;;;;;3.90;2.10;;;21.40;56.80;;;;;;5040477;28;20159;-68
2021/06/08 00:22:40;;;;;;;3.42;1.92;;;21.40;56.80;;;;;;5033117;28;20075;-68
2021/06/08 00:25:06;;;;;;;4.80;2.10;;;21.40;56.80;;;;;;5032904;28;20033;-68
2021/06/08 00:27:32;;;;;;;5.43;2.13;;;21.40;56.80;;;;;;5032723;28;20056;-68
2021/06/08 00:29:57;;;;;;;3.53;1.88;;;21.30;56.80;;;;;;5032609;28;20061;-67
2021/06/08 00:32:23;;;;;;;3.90;2.17;;;21.30;56.80;;;;;;5032697;28;20469;-68
2021/06/08 00:34:48;;;;;;;3.78;2.20;;;21.30;56.80;;;;;;5032760;28;20025;-68
2021/06/08 00:37:14;;;;;;;4.22;2.30;;;21.30;56.80;;;;;;5035663;28;20022;-68
2021/06/08 00:39:39;;;;;;;5.00;2.15;;;21.30;56.80;;;;;;5039821;28;20037;-68
2021/06/08 00:42:05;;;;;;;4.18;2.28;;;21.30;56.90;;;;;;5032750;28;20094;-67
2021/06/08 00:44:31;;;;;;;4.22;2.03;;;21.30;56.90;;;;;;5031101;28;20041;-68
2021/06/08 00:46:57;;;;;;;3.95;2.17;;;21.30;56.90;;;;;;5032572;28;20392;-68
2021/06/08 00:49:22;;;;;;;3.58;2.10;;;21.30;56.90;;;;;;5034925;28;20083;-68
2021/06/08 00:51:48;;;;;;;5.68;2.00;;;21.20;56.90;;;;;;5034932;28;20022;-68
2021/06/08 00:54:14;;;;;;;3.28;1.90;;;21.20;56.90;;;;;;5036396;28;20435;-69
2021/06/08 00:56:41;;;;;;;3.83;2.08;;;21.20;56.90;;;;;;5035956;28;20028;-68
2021/06/08 00:59:08;;;;;;;4.15;2.03;;;21.20;56.90;;;;;;5035977;28;20504;-68
2021/06/08 01:01:34;;;;;;;3.40;1.83;;;21.20;56.90;;;;;;5035813;28;20466;-68
2021/06/08 01:04:02;;;;;;;3.20;1.83;;;21.20;56.90;;;;;;5035892;28;20044;-68
2021/06/08 01:06:34;;;;;;;3.50;2.03;;;21.20;56.90;;;;;;5035944;28;20034;-68
2021/06/08 01:09:01;;;;;;;3.55;1.92;;;21.20;56.90;;;;;;5035914;28;20037;-68
2021/06/08 01:11:27;;;;;;;3.20;1.80;;;21.20;56.90;;;;;;5035812;28;20036;-68
2021/06/08 01:13:52;;;;;;;3.80;2.22;;;21.20;57.00;;;;;;5035757;28;20427;-68
2021/06/08 01:16:18;;;;;;;3.55;1.83;;;21.20;56.90;;;;;;5035725;28;20064;-68
2021/06/08 01:18:43;;;;;;;4.25;2.42;;;21.20;57.00;;;;;;5035623;28;20080;-69
2021/06/08 01:21:11;;;;;;;4.70;2.35;;;21.20;57.00;;;;;;5035663;28;20021;-69
2021/06/08 01:23:38;;;;;;;4.47;2.40;;;21.20;57.00;;;;;;5035512;28;20107;-67
2021/06/08 01:26:07;;;;;;;3.22;1.92;;;21.20;57.00;;;;;;5035697;28;20063;-68
2021/06/08 01:28:37;;;;;;;3.60;2.35;;;21.20;57.00;;;;;;5035759;28;20125;-69
2021/06/08 01:31:09;;;;;;;4.32;2.42;;;21.10;57.00;;;;;;5035694;28;20532;-68
2021/06/08 01:33:39;;;;;;;3.17;2.00;;;21.10;57.00;;;;;;5035606;28;20543;-68
2021/06/08 01:36:07;;;;;;;4.07;2.10;;;21.10;57.00;;;;;;5044749;28;20022;-68
2021/06/08 01:38:35;;;;;;;3.75;1.98;;;21.10;57.00;;;;;;5041612;28;20034;-68
2021/06/08 01:41:01;;;;;;;4.18;2.30;;;21.10;57.00;;;;;;5035626;28;20033;-68
2021/06/08 01:43:26;;;;;;;4.47;1.92;;;21.10;57.00;;;;;;5035164;28;20054;-68
2021/06/08 01:45:52;;;;;;;3.17;2.13;;;21.10;57.00;;;;;;5035402;28;20574;-68
2021/06/08 01:48:18;;;;;;;7.22;2.45;;;21.10;57.00;;;;;;5034002;28;20473;-68
2021/06/08 01:50:48;;;;;;;3.10;1.80;;;21.10;57.00;;;;;;5035052;28;20021;-68
2021/06/08 01:53:24;;;;;;;3.80;2.03;;;21.10;57.00;;;;;;5035476;28;20025;-69
2021/06/08 01:55:52;;;;;;;4.10;2.00;;;21.10;57.00;;;;;;5037230;28;20048;-68
2021/06/08 01:58:30;;;;;;;3.72;2.03;;;21.10;57.00;;;;;;5037671;28;20023;-68
2021/06/08 02:01:08;;;;;;;5.05;2.17;;;21.10;57.00;;;;;;5035514;28;20022;-68
2021/06/08 02:03:40;;;;;;;5.05;2.55;;;21.00;57.00;;;;;;5035210;28;20045;-69
2021/06/08 02:06:13;;;;;;;3.67;2.17;;;21.10;57.00;;;;;;5034992;28;20104;-68
2021/06/08 02:08:47;;;;;;;4.13;2.25;;;21.00;57.00;;;;;;5034882;28;20553;-68
2021/06/08 02:11:15;;;;;;;;;;;21.00;57.10;;;;;;5035379;28;20026;-68
2021/06/08 02:14:05;;;;;;;4.65;2.20;;;21.10;57.00;;;;;;5039596;28;19912;-68
2021/06/08 02:16:36;;;;;;;3.95;1.90;;;21.00;57.10;;;;;;5034730;28;20030;-69
2021/06/08 02:19:03;;;;;;;3.83;2.10;;;21.00;57.10;;;;;;5034931;28;20021;-68
2021/06/08 02:21:39;;;;;;;4.47;2.28;;;21.00;57.10;;;;;;5034797;28;20033;-69
2021/06/08 02:24:07;;;;;;;4.18;2.28;;;21.00;57.10;;;;;;5034450;28;20037;-68
2021/06/08 02:26:37;;;;;;;4.05;2.05;;;21.00;57.10;;;;;;5034749;28;20029;-68
2021/06/08 02:29:06;;;;;;;4.32;2.40;;;21.00;57.10;;;;;;5034651;28;20033;-68
2021/06/08 02:31:33;;;;;;;3.83;2.10;;;21.00;57.10;;;;;;5034325;28;20041;-69
2021/06/08 02:34:00;;;;;;;4.13;2.25;;;21.00;57.10;;;;;;5034316;28;20033;-69
2021/06/08 02:36:27;;;;;;;4.20;2.00;;;21.00;57.00;;;;;;5034396;28;20035;-68
2021/06/08 02:38:54;;;;;;;5.13;2.20;;;21.00;57.00;;;;;;5034387;28;20022;-68
2021/06/08 02:41:21;;;;;;;3.85;2.10;;;21.00;57.00;;;;;;5035806;28;20482;-68
2021/06/08 02:43:47;;;;;;;5.03;2.38;;;21.00;57.00;;;;;;5042672;28;20464;-69
2021/06/08 02:46:15;;;;;;;3.95;2.15;;;21.00;57.00;;;;;;5042895;28;20025;-68
2021/06/08 02:48:42;;;;;;;4.00;1.90;;;21.00;57.00;;;;;;5043912;28;20037;-68
2021/06/08 02:51:09;;;;;;;3.53;2.20;;;21.00;57.00;;;;;;5043299;28;20045;-68
2021/06/08 02:53:36;;;;;;;4.13;2.10;;;21.00;57.00;;;;;;5043415;28;20432;-68
2021/06/08 02:56:03;;;;;;;3.78;2.13;;;21.00;57.00;;;;;;5043847;28;20537;-68
2021/06/08 02:58:31;;;;;;;4.53;2.10;;;21.00;57.00;;;;;;5043599;28;20067;-69
2021/06/08 03:00:56;;;;;;;3.88;1.98;;;21.00;57.00;;;;;;5043893;28;20085;-68
2021/06/08 03:03:35;;;;;;;4.13;2.10;;;21.00;57.00;;;;;;5042855;28;20072;-68
2021/06/08 03:06:07;;;;;;;4.80;2.13;;;21.00;57.00;;;;;;5043230;28;20150;-68
2021/06/08 03:08:48;;;;;;;5.50;2.38;;;21.00;57.00;;;;;;5043336;28;20037;-68
2021/06/08 03:11:21;;;;;;;4.50;2.45;;;21.00;57.00;;;;;;5042629;28;20045;-68
2021/06/08 03:13:48;;;;;;;4.97;2.33;;;21.00;57.00;;;;;;5037152;28;20501;-68
2021/06/08 03:16:17;;;;;;;6.15;2.13;;;21.00;57.00;;;;;;5034290;28;20075;-68
2021/06/08 03:18:46;;;;;;;4.60;2.13;;;21.00;57.00;;;;;;5033996;28;20029;-67
2021/06/08 03:21:19;;;;;;;3.88;2.28;;;21.00;57.00;;;;;;5033487;28;20014;-68
2021/06/08 03:23:52;;;;;;;3.50;2.05;;;20.90;57.00;;;;;;5034045;28;20099;-68
2021/06/08 03:26:18;;;;;;;4.00;2.28;;;21.00;57.00;;;;;;5033429;28;20392;-68
2021/06/08 03:28:46;;;;;;;4.47;2.10;;;21.00;57.00;;;;;;5033587;28;20445;-68
2021/06/08 03:31:13;;;;;;;4.03;2.13;;;20.90;57.00;;;;;;5033696;28;20053;-67
2021/06/08 03:33:40;;;;;;;3.63;2.20;;;21.00;57.00;;;;;;5033622;28;20021;-68
2021/06/08 03:36:08;;;;;;;3.42;2.03;;;20.90;57.00;;;;;;5033677;28;20028;-69
2021/06/08 03:38:34;;;;;;;3.60;2.20;;;20.90;57.00;;;;;;5033567;28;20048;-69
2021/06/08 03:41:01;;;;;;;5.03;2.50;;;20.90;57.00;;;;;;5033581;28;20057;-68
2021/06/08 03:43:27;;;;;;;4.07;2.00;;;20.90;57.00;;;;;;5033040;28;20118;-68
2021/06/08 03:45:53;;;;;;;3.60;2.10;;;20.90;57.00;;;;;;5033382;28;20112;-68
2021/06/08 03:48:19;;;;;;;4.80;2.40;;;20.90;57.00;;;;;;5039769;28;20025;-70
2021/06/08 03:50:48;;;;;;;3.85;2.08;;;20.90;57.00;;;;;;5043232;28;20385;-69
2021/06/08 03:53:14;;;;;;;3.95;2.15;;;20.90;57.00;;;;;;5043531;28;20072;-69
2021/06/08 03:55:40;;;;;;;4.47;2.40;;;20.90;57.00;;;;;;5043915;28;20025;-68
2021/06/08 03:58:13;;;;;;;4.07;2.17;;;20.90;57.00;;;;;;5043010;28;20040;-68
2021/06/08 04:00:39;;;;;;;4.60;2.28;;;20.90;57.00;;;;;;5042072;28;20017;-68
2021/06/08 04:03:08;;;;;;;4.70;2.50;;;20.90;57.00;;;;;;5044089;28;20068;-68
2021/06/08 04:05:34;;;;;;;4.88;2.22;;;20.90;57.00;;;;;;5038050;28;20056;-68
2021/06/08 04:08:00;;;;;;;4.15;2.40;;;20.90;57.00;;;;;;5035546;28;20034;-68
2021/06/08 04:10:26;;;;;;;3.90;2.30;;;20.90;57.00;;;;;;5033875;28;20022;-68
2021/06/08 04:12:59;;;;;;;4.57;2.55;;;20.90;57.00;;;;;;5032968;28;20036;-67
2021/06/08 04:15:26;;;;;;;4.15;2.42;;;20.90;57.00;;;;;;5033022;28;20029;-68
2021/06/08 04:17:52;;;;;;;4.63;2.15;;;20.90;57.00;;;;;;5032865;28;20030;-68
2021/06/08 04:20:18;;;;;;;6.57;2.45;;;20.90;57.00;;;;;;5032755;28;20025;-68
2021/06/08 04:22:46;;;;;;;4.72;2.33;;;20.90;57.10;;;;;;5033167;28;20083;-68
2021/06/08 04:25:14;;;;;;;3.65;2.17;;;20.80;57.00;;;;;;5036388;28;20032;-69
2021/06/08 04:27:39;;;;;;;4.20;2.17;;;20.90;57.10;;;;;;5036811;28;20048;-68
2021/06/08 04:30:10;;;;;;;4.38;2.45;;;20.90;57.10;;;;;;5036886;28;20029;-68
2021/06/08 04:32:36;;;;;;;4.85;2.40;;;20.90;57.10;;;;;;5036583;28;20025;-69
2021/06/08 04:35:03;;;;;;;4.20;2.25;;;20.90;57.10;;;;;;5036548;28;20026;-68
2021/06/08 04:37:29;;;;;;;3.78;2.15;;;20.90;57.10;;;;;;5035014;28;20465;-68
2021/06/08 04:39:54;;;;;;;3.28;1.85;;;20.80;57.10;;;;;;5036302;28;20087;-69
2021/06/08 04:42:20;;;;;;;6.53;2.47;;;20.80;57.10;;;;;;5036804;28;20025;-68
2021/06/08 04:44:48;;;;;;;4.13;2.33;;;20.80;57.10;;;;;;5047667;28;20105;-69
2021/06/08 04:47:16;;;;;;;3.92;2.25;;;20.90;57.10;;;;;;5046423;28;20089;-69
2021/06/08 04:49:42;;;;;;;4.43;2.38;;;20.90;57.10;;;;;;5036922;28;20025;-68
2021/06/08 04:52:08;;;;;;;4.72;2.70;;;20.80;57.10;;;;;;5036352;28;20104;-68
2021/06/08 04:54:34;;;;;;;4.65;2.50;;;20.80;57.10;;;;;;5036413;28;20442;-68
2021/06/08 04:57:01;;;;;;;5.18;2.45;;;20.80;57.10;;;;;;5036163;28;20021;-69
2021/06/08 04:59:48;;;;;;;5.07;2.42;;;20.90;57.10;;;;;;5035889;28;20060;-68
2021/06/08 05:02:28;;;;;;;4.75;2.30;;;20.80;57.10;;;;;;5035939;28;20469;-69
2021/06/08 05:04:55;;;;;;;4.63;2.42;;;20.80;57.20;;;;;;5036178;28;20091;-68
2021/06/08 05:07:21;;;;;;;4.88;2.42;;;20.90;57.10;;;;;;5036071;28;20045;-68
2021/06/08 05:09:49;;;;;;;4.03;2.17;;;20.90;57.10;;;;;;5035746;28;20492;-68
2021/06/08 05:12:18;;;;;;;5.30;2.42;;;20.90;57.10;;;;;;5035777;28;20172;-68
2021/06/08 05:14:49;;;;;;;6.43;2.42;;;20.80;57.10;;;;;;5036004;28;20025;-68
2021/06/08 05:17:18;;;;;;;5.28;2.47;;;20.90;57.10;;;;;;5035688;28;20036;-69
2021/06/08 05:19:46;;;;;;;5.13;2.40;;;20.80;57.10;;;;;;5035644;28;20066;-68
2021/06/08 05:22:13;;;;;;;4.30;2.50;;;20.90;57.10;;;;;;5035732;28;20022;-68
2021/06/08 05:24:39;;;;;;;5.28;2.80;;;20.90;57.10;;;;;;5035575;28;20045;-69
2021/06/08 05:27:09;;;;;;;4.22;2.45;;;20.90;57.00;;;;;;5034446;28;20469;-68
2021/06/08 05:29:35;;;;;;;5.85;2.60;;;20.90;57.00;;;;;;5035580;28;20227;-68
2021/06/08 05:32:01;;;;;;;6.65;2.72;;;20.90;56.90;;;;;;5035471;28;20032;-68
2021/06/08 05:34:27;;;;;;;4.75;2.50;;;20.90;56.90;;;;;;5034698;28;20108;-68
2021/06/08 05:36:52;;;;;;;4.40;2.35;;;21.00;56.90;;;;;;5034908;28;20032;-68
2021/06/08 05:39:18;;;;;;;3.75;2.20;;;20.90;56.90;;;;;;5035276;28;20021;-69
2021/06/08 05:41:44;;;;;;;5.18;2.70;;;21.00;56.80;;;;;;5035487;28;20070;-69
2021/06/08 05:44:11;;;;;;;5.60;2.65;;;21.00;56.80;;;;;;5035014;28;20077;-68
2021/06/08 05:46:38;;;;;;;4.80;2.25;;;21.00;56.80;;;;;;5035451;28;20026;-67
2021/06/08 05:49:06;;;;;;;4.25;2.40;;;21.00;56.80;;;;;;5041476;28;20061;-68
2021/06/08 05:51:33;;;;;;;6.50;2.45;;;21.00;56.80;;;;;;5035513;28;20022;-68
2021/06/08 05:54:00;;;;;;;4.45;2.40;;;21.00;56.80;;;;;;5035244;28;20388;-68
2021/06/08 05:56:30;;;;;;;4.22;2.28;;;21.00;56.70;;;;;;5035244;28;20022;-68
2021/06/08 05:58:56;;;;;;;4.28;2.50;;;21.00;56.70;;;;;;5034865;28;20044;-68
2021/06/08 06:01:22;;;;;;;5.30;2.60;;;21.00;56.60;;;;;;5034829;28;20037;-68
2021/06/08 06:03:50;;;;;;;4.53;2.45;;;21.00;56.60;;;;;;5034563;28;20561;-69
2021/06/08 06:06:16;;;;;;;4.15;2.30;;;21.00;56.60;;;;;;5033412;28;20045;-68
2021/06/08 06:08:41;;;;;;;4.72;2.67;;;21.00;56.50;;;;;;5034594;28;20064;-68
2021/06/08 06:11:08;;;;;;;4.72;2.28;;;21.00;56.50;;;;;;5034822;28;20079;-67
2021/06/08 06:13:38;;;;;;;5.97;2.63;;;21.00;56.50;;;;;;5034810;28;20029;-69
2021/06/08 06:16:06;;;;;;;3.97;2.42;;;21.10;56.50;;;;;;5034907;28;20056;-68
2021/06/08 06:18:32;;;;;;;5.38;2.83;;;21.10;56.40;;;;;;5034488;28;20037;-68
2021/06/08 06:20:58;;;;;;;4.18;1.92;;;21.10;56.40;;;;;;5034328;28;20029;-68
2021/06/08 06:23:25;;;;;;;5.05;2.63;;;21.10;56.40;;;;;;5031918;28;20500;-69
2021/06/08 06:25:53;;;;;;;6.25;2.20;;;21.10;56.40;;;;;;5049034;28;20104;-69
2021/06/08 06:28:19;;;;;;;4.05;2.38;;;21.10;56.40;;;;;;5035766;28;20299;-69
2021/06/08 06:30:47;;;;;;;5.28;2.50;;;21.10;56.40;;;;;;5036630;28;20028;-69
2021/06/08 06:33:14;;;;;;;4.20;2.45;;;21.10;56.30;;;;;;5037628;28;20025;-68
2021/06/08 06:35:40;;;;;;;4.35;2.47;;;21.20;56.30;;;;;;5033450;28;20369;-68
2021/06/08 06:38:07;;;;;;;5.93;3.08;;;21.20;56.20;;;;;;5032930;28;20076;-68
2021/06/08 06:40:35;;;;;;;9.52;4.22;;;21.20;55.70;;;;;;5045488;28;20673;-68
2021/06/08 06:43:04;;;;;;;8.88;3.75;;;21.20;55.20;;;;;;5045419;28;20053;-68
2021/06/08 06:45:31;;;;;;;8.02;3.65;;;21.20;55.00;;;;;;5052436;28;20493;-69
2021/06/08 06:48:02;;;;;;;8.35;4.15;;;21.20;54.90;;;;;;5048586;28;20232;-69
2021/06/08 06:50:32;;;;;;;7.07;3.70;;;21.20;55.20;;;;;;5052766;28;20060;-69
2021/06/08 06:52:58;;;;;;;6.70;3.75;;;21.20;55.20;;;;;;5050243;28;20044;-68
2021/06/08 06:55:26;;;;;;;7.60;3.90;;;21.30;55.20;;;;;;5033016;28;20776;-69
2021/06/08 06:57:56;;;;;;;6.03;2.78;;;21.20;55.10;;;;;;5039057;28;20444;-70
2021/06/08 07:00:27;;;;;;;5.97;3.10;;;21.20;55.40;;;;;;5032572;28;20018;-70
2021/06/08 07:02:55;;;;;;;5.20;2.67;;;21.30;55.60;;;;;;5039317;28;20033;-69
2021/06/08 07:05:30;;;;;;;6.30;2.88;;;21.30;56.00;;;;;;5047154;28;20432;-67
2021/06/08 07:07:56;;;;;;;7.97;3.35;;;21.40;55.80;;;;;;5051476;28;20079;-69
2021/06/08 07:10:26;;;;;;;6.15;2.72;;;21.40;55.80;;;;;;5051935;28;20503;-68
2021/06/08 07:12:54;;;;;;;6.75;2.60;;;21.50;55.80;;;;;;5052934;28;20025;-69
2021/06/08 07:15:26;;;;;;;6.05;2.53;;;21.50;55.80;;;;;;5052808;28;20476;-68
2021/06/08 07:17:53;;;;;;;5.20;2.42;;;21.50;55.90;;;;;;5052594;28;20013;-68
2021/06/08 07:20:20;;;;;;;6.32;2.65;;;21.50;55.90;;;;;;5050653;28;20025;-67
2021/06/08 07:22:47;;;;;;;4.38;2.38;;;21.50;55.90;;;;;;5051012;28;20018;-67
2021/06/08 07:25:16;;;;;;;4.38;2.75;;;21.50;55.80;;;;;;5052945;28;20021;-67
2021/06/08 07:27:41;;;;;;;7.15;2.50;;;21.60;55.70;;;;;;5052396;28;20349;-67
2021/06/08 07:30:12;;;;;;;5.75;2.40;;;21.50;55.80;;;;;;5052618;28;20035;-67
2021/06/08 07:32:43;;;;;;;4.25;2.17;;;21.60;55.80;;;;;;5051399;28;20033;-70
2021/06/08 07:35:15;;;;;;;6.50;2.30;;;21.60;55.70;;;;;;5052374;28;20496;-69
2021/06/08 07:37:59;;;;;;;6.30;2.75;;;21.60;55.70;;;;;;5018252;28;20142;-69
2021/06/08 07:40:35;;;;;;;5.10;2.35;;;21.70;55.60;;;;;;5052691;28;20132;-70
2021/06/08 07:43:04;;;;;;;7.30;2.78;;;21.60;55.50;;;;;;5052305;28;20115;-67
2021/06/08 07:45:51;;;;;;;5.05;2.45;;;21.70;55.40;;;;;;5052346;28;20029;-66
2021/06/08 07:48:26;;;;;;;6.25;2.50;;;21.60;55.50;;;;;;5052201;28;20025;-66
2021/06/08 07:50:54;;;;;;;4.97;2.45;;;21.70;55.50;;;;;;5047658;28;20037;-65
2021/06/08 07:53:25;;;;;;;5.93;2.45;;;21.70;55.50;;;;;;5059040;28;20013;-66
2021/06/08 07:55:51;;;;;;;4.75;2.30;;;21.70;55.50;;;;;;5058928;28;20052;-69
2021/06/08 07:58:24;;;;;;;6.65;2.47;;;21.70;55.50;;;;;;5051857;28;20033;-68
2021/06/08 08:00:52;;;;;;;3.83;2.30;;;21.80;55.50;;;;;;5051802;28;20025;-67
2021/06/08 08:03:28;;;;;;;3.97;2.20;;;21.80;55.50;;;;;;5052269;28;20029;-68
2021/06/08 08:05:59;;;;;;;5.65;2.67;;;21.80;55.50;;;;;;5052172;28;20074;-70
2021/06/08 08:08:25;;;;;;;8.45;2.90;;;21.90;55.70;;;;;;5052212;28;20053;-68
2021/06/08 08:10:52;;;;;;;6.18;2.50;;;21.90;55.80;;;;;;5051685;28;20021;-68
2021/06/08 08:13:23;;;;;;;6.63;2.70;;;21.90;55.60;;;;;;5052272;28;20060;-70
2021/06/08 08:15:51;;;;;;;6.75;2.95;;;21.90;55.90;;;;;;5052234;28;20025;-67
2021/06/08 08:18:18;;;;;;;6.63;2.83;;;21.80;56.20;;;;;;5051227;28;20376;-69
2021/06/08 08:20:53;;;;;;;4.22;2.28;;;21.90;56.10;;;;;;5052053;28;20021;-71
2021/06/08 08:23:20;;;;;;;7.40;2.42;;;22.00;56.00;;;;;;5051947;28;20033;-67
2021/06/08 08:25:47;;;;;;;4.07;2.50;;;22.00;56.10;;;;;;5051440;28;20130;-67
2021/06/08 08:28:13;;;;;;;4.53;2.15;;;22.00;56.10;;;;;;5049948;28;20072;-66
2021/06/08 08:30:40;;;;;;;4.15;2.28;;;22.00;56.10;;;;;;5052188;28;20029;-68
2021/06/08 08:33:06;;;;;;;6.85;2.40;;;22.00;56.10;;;;;;5051614;28;20064;-66
2021/06/08 08:35:36;;;;;;;8.55;2.85;;;22.00;56.10;;;;;;5051530;28;20060;-66
2021/06/08 08:38:03;;;;;;;8.30;2.50;;;22.00;56.00;;;;;;5050811;28;20364;-69
2021/06/08 08:40:29;;;;;;;6.70;2.28;;;22.00;56.20;;;;;;5053188;28;20037;-68
2021/06/08 08:42:55;;;;;;;6.40;2.35;;;22.00;56.10;;;;;;5055104;28;20071;-68
2021/06/08 08:45:21;;;;;;;6.35;2.72;;;22.00;56.20;;;;;;5051950;28;20033;-67
2021/06/08 08:47:47;;;;;;;7.90;2.40;;;22.00;56.10;;;;;;5051262;28;20476;-65
2021/06/08 08:50:17;;;;;;;6.10;2.38;;;22.00;56.10;;;;;;5052809;28;20108;-68
2021/06/08 08:52:45;;;;;;;5.88;3.03;;;22.00;56.10;;;;;;5042913;28;20076;-67
2021/06/08 08:55:12;;;;;;;7.57;2.60;;;22.00;56.00;;;;;;5051249;28;20025;-68
2021/06/08 08:57:40;;;;;;;4.93;2.58;;;22.00;55.90;;;;;;5044326;28;20064;-68
2021/06/08 09:00:06;;;;;;;6.45;2.70;;;22.00;55.90;;;;;;5031321;28;20362;-68
2021/06/08 09:02:32;;;;;;;10.02;2.65;;;22.10;55.90;;;;;;5029387;28;20376;-67
2021/06/08 09:05:00;;;;;;;10.05;2.97;;;22.10;56.00;;;;;;5030712;28;20045;-67
2021/06/08 09:07:26;;;;;;;7.50;2.60;;;22.10;55.90;;;;;;5042831;28;20101;-68
2021/06/08 09:09:52;;;;;;;6.70;2.30;;;22.10;55.80;;;;;;5045855;28;20497;-68
2021/06/08 09:12:19;;;;;;;5.30;2.60;;;22.20;55.80;;;;;;5034333;28;20132;-68
2021/06/08 09:14:46;;;;;;;6.63;2.22;;;22.10;55.80;;;;;;5034359;28;20032;-68
2021/06/08 09:17:15;;;;;;;5.20;2.40;;;22.10;55.90;;;;;;5034202;28;20029;-68
2021/06/08 09:19:41;;;;;;;5.05;2.40;;;22.10;55.90;;;;;;5034481;28;20022;-68
2021/06/08 09:22:10;;;;;;;7.30;2.90;;;22.10;55.90;;;;;;5040429;28;20293;-67
2021/06/08 09:24:36;;;;;;;5.78;2.70;;;22.10;55.90;;;;;;5055693;28;20457;-68
2021/06/08 09:27:05;;;;;;;5.68;2.53;;;22.20;55.90;;;;;;5057679;28;20028;-68
2021/06/08 09:29:44;;;;;;;6.75;2.42;;;22.10;55.80;;;;;;5054340;28;20043;-68
2021/06/08 09:32:23;;;;;;;7.55;3.08;;;22.10;55.90;;;;;;5054626;28;20021;-67
2021/06/08 09:34:57;;;;;;;5.85;2.30;;;22.10;56.00;;;;;;5052517;28;20021;-68
2021/06/08 09:37:31;;;;;;;4.30;2.50;;;22.10;56.00;;;;;;5053399;28;20029;-69
2021/06/08 09:39:57;;;;;;;5.38;2.90;;;22.20;56.00;;;;;;5054204;28;20025;-68
2021/06/08 09:42:30;;;;;;;7.03;2.78;;;22.20;56.10;;;;;;5053976;28;20499;-67
2021/06/08 09:45:20;;;;;;;6.15;2.67;;;22.20;56.10;;;;;;5054296;28;20037;-68
2021/06/08 09:47:58;;;;;;;7.65;2.80;;;22.20;56.10;;;;;;5035911;28;20024;-68
2021/06/08 09:50:34;;;;;;;5.90;2.60;;;22.20;56.00;;;;;;5037963;28;20029;-67
2021/06/08 09:53:21;;;;;;;5.32;2.58;;;22.20;55.90;;;;;;5054974;28;20074;-70
2021/06/08 09:55:53;;;;;;;7.47;2.90;;;22.30;55.80;;;;;;5058045;28;20025;-67
2021/06/08 09:58:19;;;;;;;6.25;2.90;;;22.20;55.90;;;;;;5059981;28;20100;-66
2021/06/08 10:01:05;;;;;;;5.75;2.53;;;22.30;55.80;;;;;;5059190;28;20049;-67
2021/06/08 10:03:43;;;;;;;6.15;2.40;;;22.30;55.90;;;;;;5057957;28;20036;-69
2021/06/08 10:06:20;;;;;;;5.47;2.55;;;22.30;55.80;;;;;;5054364;28;20025;-69
2021/06/08 10:08:54;;;;;;;8.32;3.05;;;22.30;55.80;;;;;;5053826;28;20092;-69
2021/06/08 10:11:24;;;;;;;5.55;2.50;;;22.30;55.90;;;;;;5053114;28;20025;-67
2021/06/08 10:13:57;;;;;;;7.40;3.30;;;22.30;55.80;;;;;;5053313;28;20080;-68
2021/06/08 10:16:27;;;;;;;6.03;2.78;;;22.30;55.80;;;;;;5053423;28;20141;-68
2021/06/08 10:18:52;;;;;;;6.53;2.80;;;22.30;55.90;;;;;;5053403;28;20028;-68
2021/06/08 10:21:34;;;;;;;7.53;2.58;;;22.30;55.90;;;;;;5052177;28;20024;-68
2021/06/08 10:24:20;;;;;;;6.05;3.00;;;22.40;55.80;;;;;;5052683;28;20488;-68
2021/06/08 10:26:52;;;;;;;6.97;2.80;;;22.40;55.80;;;;;;5053149;28;20116;-68
2021/06/08 10:29:25;;;;;;;5.57;2.55;;;22.40;55.80;;;;;;5053054;28;20096;-68
2021/06/08 10:31:52;;;;;;;7.07;2.67;;;22.40;55.80;;;;;;5052604;28;20029;-68
2021/06/08 10:34:18;;;;;;;5.95;2.88;;;22.40;55.90;;;;;;5052971;28;20024;-67
2021/06/08 10:36:44;;;;;;;6.07;2.63;;;22.40;55.90;;;;;;5052237;28;20059;-68
2021/06/08 10:39:16;;;;;;;6.50;2.80;;;22.40;56.00;;;;;;5052475;28;20431;-66
2021/06/08 10:41:44;;;;;;;8.65;2.67;;;22.40;55.80;;;;;;5052627;28;20484;-66
2021/06/08 10:44:20;;;;;;;5.82;2.90;;;22.50;55.70;;;;;;5052607;28;20094;-69
2021/06/08 10:46:50;;;;;;;11.95;2.67;;;22.50;55.90;;;;;;5041532;28;20053;-67
2021/06/08 10:49:16;;;;;;;4.80;2.60;;;22.50;55.60;;;;;;5033050;28;20064;-67
2021/06/08 10:52:02;;;;;;;7.65;3.22;;;22.50;55.70;;;;;;5034212;28;20044;-67
2021/06/08 10:54:28;;;;;;;6.15;3.00;;;22.50;55.50;;;;;;5033130;28;20455;-67
2021/06/08 10:56:58;;;;;;;6.53;2.45;;;22.50;55.50;;;;;;5048927;28;20087;-67
2021/06/08 10:59:38;;;;;;;5.13;2.58;;;22.50;55.40;;;;;;5042306;28;20017;-66
2021/06/08 11:02:05;;;;;;;6.78;3.10;;;22.50;55.50;;;;;;5033170;28;20029;-66
2021/06/08 11:04:55;;;;;;;4.97;2.40;;;22.50;55.40;;;;;;5037270;28;20453;-67
2021/06/08 11:07:47;;;;;;;5.47;3.05;;;22.60;55.50;;;;;;5050353;28;20037;-69
2021/06/08 11:10:28;;;;;;;5.40;2.90;;;22.60;55.30;;;;;;5063149;28;20028;-66
2021/06/08 11:13:31;;;;;;;6.03;2.70;;;22.70;55.30;;;;;;5063301;28;20411;-67
2021/06/08 11:16:27;;;;;;;5.88;2.60;;;22.60;55.30;;;;;;5043868;28;20026;-67
2021/06/08 11:18:52;;;;;;;6.25;2.45;;;22.60;55.50;;;;;;5042210;28;20092;-67
2021/06/08 11:21:25;;;;;;;5.70;2.90;;;22.60;55.50;;;;;;5057493;28;20090;-68
2021/06/08 11:23:54;;;;;;;6.10;2.50;;;22.60;55.60;;;;;;5033183;28;20060;-67
2021/06/08 11:26:47;;;;;;;5.75;2.42;;;22.60;55.60;;;;;;5032739;28;20033;-67
2021/06/08 11:29:32;;;;;;;6.03;2.50;;;22.60;55.50;;;;;;5032233;28;20421;-67
2021/06/08 11:31:58;;;;;;;5.38;2.50;;;22.70;55.40;;;;;;5032232;28;20036;-66
2021/06/08 11:34:27;;;;;;;4.55;2.33;;;22.80;55.30;;;;;;5032040;28;20029;-66
2021/06/08 11:36:52;;;;;;;5.95;2.35;;;22.70;55.30;;;;;;5033810;28;20021;-65
2021/06/08 11:39:22;;;;;;;6.47;2.60;;;22.70;55.30;;;;;;5052003;28;20060;-65
2021/06/08 11:42:05;;;;;;;7.57;2.80;;;22.70;55.50;;;;;;5050297;28;20104;-68
2021/06/08 11:44:31;;;;;;;5.53;2.58;;;22.80;55.40;;;;;;5051625;28;20408;-66
2021/06/08 11:47:01;;;;;;;6.13;2.90;;;22.90;55.10;;;;;;5051545;28;20032;-66
2021/06/08 11:49:28;;;;;;;6.00;2.70;;;22.90;55.00;;;;;;5051819;28;20032;-69
2021/06/08 11:52:02;;;;;;;5.75;2.67;;;22.90;55.10;;;;;;5031991;28;20029;-66
2021/06/08 11:54:31;;;;;;;;;;;22.90;55.00;;;;;;5046964;28;20024;-65
2021/06/08 11:56:56;;;;;;;4.85;2.58;;;22.90;55.10;;;;;;5049821;28;20384;-67
2021/06/08 11:59:26;;;;;;;8.50;3.03;;;23.00;54.90;;;;;;5051260;28;20088;-66
2021/06/08 12:02:29;;;;;;;5.72;2.47;;;22.90;55.00;;;;;;5051454;28;20473;-67
2021/06/08 12:05:25;;;;;;;5.38;2.63;;;23.00;54.90;;;;;;5051585;28;20033;-68
2021/06/08 12:07:51;;;;;;;8.45;2.58;;;23.10;54.60;;;;;;5050512;28;20094;-68
2021/06/08 12:10:32;;;;;;;5.07;2.50;;;23.00;54.80;;;;;;5050527;28;20476;-68
2021/06/08 12:12:58;;;;;;;6.43;2.80;;;23.10;54.80;;;;;;5051245;28;20041;-68
2021/06/08 12:15:34;;;;;;;5.82;2.50;;;23.10;54.70;;;;;;5050312;28;20021;-68
2021/06/08 12:18:05;;;;;;;6.68;2.97;;;23.20;54.50;;;;;;5051431;28;20787;-68
2021/06/08 12:20:31;;;;;;;7.10;2.55;;;23.20;54.40;;;;;;5051644;28;20036;-67
2021/06/08 12:22:57;;;;;;;6.38;2.60;;;23.20;54.40;;;;;;5051689;28;20029;-68
2021/06/08 12:25:24;;;;;;;4.93;2.40;;;23.20;54.50;;;;;;5051618;28;20429;-68
2021/06/08 12:27:50;;;;;;;5.35;2.50;;;23.20;54.50;;;;;;5050659;28;20021;-68
2021/06/08 12:30:27;;;;;;;5.10;2.47;;;23.20;54.50;;;;;;5051310;28;20113;-69
2021/06/08 12:33:01;;;;;;;5.85;2.95;;;23.20;54.60;;;;;;5051790;28;20122;-68
2021/06/08 12:35:31;;;;;;;;;;;23.30;54.40;;;;;;5052727;28;20032;-68
2021/06/08 12:38:17;;;;;;;7.13;2.67;;;23.40;54.30;;;;;;5052414;28;19905;-69
2021/06/08 12:40:56;;;;;;;5.25;2.58;;;23.50;54.10;;;;;;5052069;28;20029;-68
2021/06/08 12:43:22;;;;;;;6.68;2.60;;;23.50;54.00;;;;;;5051720;28;20476;-68
2021/06/08 12:45:55;;;;;;;5.18;2.38;;;23.60;53.90;;;;;;5055263;28;20035;-68
2021/06/08 12:48:20;;;;;;;4.95;2.60;;;23.60;53.70;;;;;;5057875;28;20017;-69
2021/06/08 12:50:46;;;;;;;4.75;2.60;;;23.80;53.50;;;;;;5055403;28;20148;-69
2021/06/08 12:53:22;;;;;;;4.60;2.63;;;23.70;53.50;;;;;;5050016;28;20067;-68
2021/06/08 12:55:49;;;;;;;5.10;3.00;;;23.70;53.50;;;;;;5035548;28;20076;-68
2021/06/08 12:58:16;;;;;;;6.20;2.80;;;23.60;53.80;;;;;;5035066;28;20025;-68
2021/06/08 13:00:43;;;;;;;5.18;2.55;;;23.60;53.90;;;;;;5034877;28;20036;-69